Time;durP1;ratioP1;P1;durP2;ratioP2;P2;SDS_P1;SDS_P2;PMS_P1;PMS_P2;Temp;Humidity;BMP_temperature;BMP_pressure;BME280_temperature;BME280_humidity;BME280_pressure;Samples;Min_cycle;Max_cycle;Signal;HPM_P1;HPM_P2
2023/07/09 00:00:24;;;;;;;;;;;;;;;;;;5093789;28;20074;-68
2023/07/09 00:02:50;;;;;;;;;;;;;;;;;;5093395;28;20483;-69
2023/07/09 00:05:16;;;;;;;;;;;;;;;;;;5093263;28;19969;-69
2023/07/09 00:07:42;;;;;;;;;;;;;;;;;;5093288;28;20413;-68
2023/07/09 00:10:08;;;;;;;;;;;;;;;;;;5093306;28;19961;-69
2023/07/09 00:12:33;;;;;;;;;;;;;;;;;;5093328;28;19962;-68
2023/07/09 00:14:59;;;;;;;;;;;;;;;;;;5093798;28;20450;-69
2023/07/09 00:17:25;;;;;;;;;;;;;;;;;;5094062;28;19955;-69
2023/07/09 00:19:51;;;;;;;;;;;;;;;;;;5096979;28;20498;-68
2023/07/09 00:22:17;;;;;;;;;;;;;;;;;;5097227;28;20002;-69
2023/07/09 00:24:44;;;;;;;;;;;;;;;;;;5097138;28;20420;-69
2023/07/09 00:27:10;;;;;;;;;;;;;;;;;;5097125;28;20388;-69
2023/07/09 00:29:36;;;;;;;;;;;;;;;;;;5097372;28;19996;-69
2023/07/09 00:32:01;;;;;;;;;;;;;;;;;;5097058;28;19963;-68
2023/07/09 00:34:27;;;;;;;;;;;;;;;;;;5096680;28;19980;-68
2023/07/09 00:36:53;;;;;;;;;;;;;;;;;;5096690;28;19955;-70
2023/07/09 00:39:19;;;;;;;;;;;;;;;;;;5096961;28;19953;-70
2023/07/09 00:41:48;;;;;;;;;;;;;;;;;;5096854;28;19958;-68
2023/07/09 00:44:14;;;;;;;;;;;;;;;;;;5096526;28;19961;-68
2023/07/09 00:46:40;;;;;;;;;;;;;;;;;;5096496;28;19953;-68
2023/07/09 00:49:06;;;;;;;;;;;;;;;;;;5096453;28;19959;-68
2023/07/09 00:51:31;;;;;;;;;;;;;;;;;;5096460;28;20004;-69
2023/07/09 00:53:58;;;;;;;;;;;;;;;;;;5096909;28;20007;-70
2023/07/09 00:56:24;;;;;;;;;;;;;;;;;;5096408;28;19980;-68
2023/07/09 00:58:50;;;;;;;;;;;;;;;;;;5096591;28;19954;-69
2023/07/09 01:01:16;;;;;;;;;;;;;;;;;;5096231;28;20442;-69
2023/07/09 01:03:42;;;;;;;;;;;;;;;;;;5096471;28;19963;-68
2023/07/09 01:06:08;;;;;;;;;;;;;;;;;;5096033;28;20537;-69
2023/07/09 01:08:33;;;;;;;;;;;;;;;;;;5096646;28;20000;-68
2023/07/09 01:10:59;;;;;;;;;;;;;;;;;;5096078;28;20419;-69
2023/07/09 01:13:26;;;;;;;;;;;;;;;;;;5095859;28;19998;-69
2023/07/09 01:15:52;;;;;;;;;;;;;;;;;;5096491;28;19974;-69
2023/07/09 01:18:17;;;;;;;;;;;;;;;;;;5096462;28;20338;-70
2023/07/09 01:20:46;;;;;;;;;;;;;;;;;;5096200;28;19954;-68
2023/07/09 01:23:12;;;;;;;;;;;;;;;;;;5095875;28;20358;-68
2023/07/09 01:25:38;;;;;;;;;;;;;;;;;;5096063;28;19959;-68
2023/07/09 01:28:04;;;;;;;;;;;;;;;;;;5096570;28;20418;-69
2023/07/09 01:30:30;;;;;;;;;;;;;;;;;;5095117;28;19997;-69
2023/07/09 01:32:55;;;;;;;;;;;;;;;;;;5096175;28;20410;-69
2023/07/09 01:35:21;;;;;;;;;;;;;;;;;;5095495;28;19973;-69
2023/07/09 01:37:47;;;;;;;;;;;;;;;;;;5095527;28;19954;-68
2023/07/09 01:45:34;;;;;;;;;;;;;;;;;;4926216;28;20118;-69
2023/07/09 01:48:00;;;;;;;;;;;;;;;;;;4975905;28;20081;-69
2023/07/09 01:50:26;;;;;;;;;;;;;;;;;;4976448;28;20006;-69
2023/07/09 01:52:53;;;;;;;;;;;;;;;;;;4976379;28;20028;-69
2023/07/09 01:55:19;;;;;;;;;;;;;;;;;;4976329;28;20064;-69
2023/07/09 01:57:45;;;;;;;;;;;;;;;;;;4976296;28;20430;-69
2023/07/09 02:00:13;;;;;;;;;;;;;;;;;;4976251;28;19954;-69
2023/07/09 02:02:42;;;;;;;;;;;;;;;;;;4976189;28;19995;-69
2023/07/09 02:05:08;;;;;;;;;;;;;;;;;;4975792;28;19959;-69
2023/07/09 02:07:34;;;;;;;;;;;;;;;;;;4976111;28;20429;-70
2023/07/09 02:10:00;;;;;;;;;;;;;;;;;;4976583;28;19958;-69
2023/07/09 02:12:26;;;;;;;;;;;;;;;;;;4976062;28;19966;-69
2023/07/09 02:14:52;;;;;;;;;;;;;;;;;;4976428;28;19981;-69
2023/07/09 02:17:18;;;;;;;;;;;;;;;;;;4975918;28;19960;-69
2023/07/09 02:19:44;;;;;;;;;;;;;;;;;;4976106;28;20393;-69
2023/07/09 02:22:10;;;;;;;;;;;;;;;;;;4975832;28;19963;-69
2023/07/09 02:24:35;;;;;;;;;;;;;;;;;;4976009;28;20320;-69
2023/07/09 02:27:01;;;;;;;;;;;;;;;;;;4975720;28;20409;-69
2023/07/09 02:29:27;;;;;;;;;;;;;;;;;;4975691;28;19956;-70
2023/07/09 02:31:54;;;;;;;;;;;;;;;;;;4975633;28;20436;-70
2023/07/09 02:34:19;;;;;;;;;;;;;;;;;;4975826;28;19977;-69
2023/07/09 02:36:45;;;;;;;;;;;;;;;;;;4975559;28;19964;-69
2023/07/09 02:39:12;;;;;;;;;;;;;;;;;;4975546;28;20327;-70
2023/07/09 02:41:38;;;;;;;;;;;;;;;;;;4974594;28;20008;-69
2023/07/09 02:44:04;;;;;;;;;;;;;;;;;;4974001;28;20055;-69
2023/07/09 02:46:30;;;;;;;;;;;;;;;;;;4976189;28;19962;-70
2023/07/09 02:48:56;;;;;;;;;;;;;;;;;;4975370;28;19954;-69
2023/07/09 02:51:22;;;;;;;;;;;;;;;;;;4974019;28;20356;-69
2023/07/09 02:53:48;;;;;;;;;;;;;;;;;;4975242;28;19961;-69
2023/07/09 02:56:14;;;;;;;;;;;;;;;;;;4975529;28;19965;-70
2023/07/09 02:58:40;;;;;;;;;;;;;;;;;;4975222;28;20312;-70
2023/07/09 03:01:05;;;;;;;;;;;;;;;;;;4975070;28;19987;-69
2023/07/09 03:03:31;;;;;;;;;;;;;;;;;;4975420;28;19956;-70
2023/07/09 03:05:57;;;;;;;;;;;;;;;;;;4975078;28;19956;-69
2023/07/09 03:08:23;;;;;;;;;;;;;;;;;;4975619;28;19957;-69
2023/07/09 03:10:49;;;;;;;;;;;;;;;;;;4975038;28;20059;-69
2023/07/09 03:13:15;;;;;;;;;;;;;;;;;;4975028;28;20011;-69
2023/07/09 03:15:41;;;;;;;;;;;;;;;;;;4975189;28;19992;-69
2023/07/09 03:18:07;;;;;;;;;;;;;;;;;;4974920;28;20413;-69
2023/07/09 03:20:33;;;;;;;;;;;;;;;;;;4975187;28;19960;-69
2023/07/09 03:22:58;;;;;;;;;;;;;;;;;;4974881;28;19962;-69
2023/07/09 03:25:24;;;;;;;;;;;;;;;;;;4975440;28;19956;-69
2023/07/09 03:27:50;;;;;;;;;;;;;;;;;;4974865;28;19958;-69
2023/07/09 03:30:16;;;;;;;;;;;;;;;;;;4975132;28;19956;-69
2023/07/09 03:32:42;;;;;;;;;;;;;;;;;;4975090;28;20314;-69
2023/07/09 03:35:08;;;;;;;;;;;;;;;;;;4975313;28;20106;-69
2023/07/09 03:37:34;;;;;;;;;;;;;;;;;;4974762;28;20340;-69
2023/07/09 03:40:00;;;;;;;;;;;;;;;;;;4974763;28;20344;-70
2023/07/09 03:42:26;;;;;;;;;;;;;;;;;;4975262;28;20063;-69
2023/07/09 03:44:52;;;;;;;;;;;;;;;;;;4975113;28;19993;-70
2023/07/09 03:47:18;;;;;;;;;;;;;;;;;;4974709;28;20411;-69
2023/07/09 03:49:43;;;;;;;;;;;;;;;;;;4974683;28;19960;-69
2023/07/09 03:52:09;;;;;;;;;;;;;;;;;;4974926;28;19958;-69
2023/07/09 03:54:35;;;;;;;;;;;;;;;;;;4977946;28;20028;-69
2023/07/09 03:57:01;;;;;;;;;;;;;;;;;;4978496;28;20375;-69
2023/07/09 03:59:27;;;;;;;;;;;;;;;;;;4978693;28;19956;-69
2023/07/09 04:01:54;;;;;;;;;;;;;;;;;;4978403;28;20328;-69
2023/07/09 04:04:20;;;;;;;;;;;;;;;;;;4978630;28;19955;-69
2023/07/09 04:06:46;;;;;;;;;;;;;;;;;;4978300;28;19955;-69
2023/07/09 04:09:12;;;;;;;;;;;;;;;;;;4978520;28;19963;-69
2023/07/09 04:11:37;;;;;;;;;;;;;;;;;;4978213;28;20333;-69
2023/07/09 04:14:03;;;;;;;;;;;;;;;;;;4978066;28;19957;-69
2023/07/09 04:16:29;;;;;;;;;;;;;;;;;;4978630;28;19957;-69
2023/07/09 04:18:55;;;;;;;;;;;;;;;;;;4978062;28;19956;-70
2023/07/09 04:21:21;;;;;;;;;;;;;;;;;;4978558;28;20390;-69
2023/07/09 04:23:47;;;;;;;;;;;;;;;;;;4978227;28;19966;-69
2023/07/09 04:26:13;;;;;;;;;;;;;;;;;;4977919;28;20471;-69
2023/07/09 04:28:39;;;;;;;;;;;;;;;;;;4977915;28;20055;-69
2023/07/09 04:31:05;;;;;;;;;;;;;;;;;;4978079;28;19959;-69
2023/07/09 04:33:31;;;;;;;;;;;;;;;;;;4977839;28;19963;-70
2023/07/09 04:35:57;;;;;;;;;;;;;;;;;;4978238;28;20325;-69
2023/07/09 04:38:23;;;;;;;;;;;;;;;;;;4977971;28;19991;-69
2023/07/09 04:40:48;;;;;;;;;;;;;;;;;;4977710;28;20365;-69
2023/07/09 04:43:14;;;;;;;;;;;;;;;;;;4977662;28;19979;-70
2023/07/09 04:45:40;;;;;;;;;;;;;;;;;;4978373;28;20323;-69
2023/07/09 04:48:06;;;;;;;;;;;;;;;;;;4977582;28;20008;-69
2023/07/09 04:50:32;;;;;;;;;;;;;;;;;;4977761;28;20040;-69
2023/07/09 04:52:58;;;;;;;;;;;;;;;;;;4977432;28;19963;-69
2023/07/09 04:55:24;;;;;;;;;;;;;;;;;;4977320;28;19981;-69
2023/07/09 04:57:50;;;;;;;;;;;;;;;;;;4977623;28;19992;-69
2023/07/09 05:00:16;;;;;;;;;;;;;;;;;;4977310;28;19956;-69
2023/07/09 05:02:42;;;;;;;;;;;;;;;;;;4977814;28;20000;-69
2023/07/09 05:05:08;;;;;;;;;;;;;;;;;;4976292;28;19960;-69
2023/07/09 05:07:34;;;;;;;;;;;;;;;;;;4977190;28;19962;-69
2023/07/09 05:10:00;;;;;;;;;;;;;;;;;;4975819;28;20050;-69
2023/07/09 05:12:26;;;;;;;;;;;;;;;;;;4977649;28;19963;-69
2023/07/09 05:14:51;;;;;;;;;;;;;;;;;;4977261;28;20077;-69
2023/07/09 05:17:17;;;;;;;;;;;;;;;;;;4977274;28;19964;-69
2023/07/09 05:19:43;;;;;;;;;;;;;;;;;;4977213;28;20050;-69
2023/07/09 05:22:09;;;;;;;;;;;;;;;;;;4976899;28;19956;-69
2023/07/09 05:24:35;;;;;;;;;;;;;;;;;;4976901;28;19955;-69
2023/07/09 05:27:01;;;;;;;;;;;;;;;;;;4977090;28;19957;-70
2023/07/09 05:29:27;;;;;;;;;;;;;;;;;;4976836;28;20032;-69
2023/07/09 05:31:53;;;;;;;;;;;;;;;;;;4976805;28;19962;-70
2023/07/09 05:34:19;;;;;;;;;;;;;;;;;;4976960;28;19983;-69
2023/07/09 05:36:44;;;;;;;;;;;;;;;;;;4976690;28;19990;-69
2023/07/09 05:39:10;;;;;;;;;;;;;;;;;;4976665;28;19963;-69
2023/07/09 05:41:36;;;;;;;;;;;;;;;;;;4976734;28;20058;-69
2023/07/09 05:44:02;;;;;;;;;;;;;;;;;;4976359;28;19992;-69
2023/07/09 05:46:28;;;;;;;;;;;;;;;;;;4977257;28;19956;-69
2023/07/09 05:48:54;;;;;;;;;;;;;;;;;;4976491;28;20012;-69
2023/07/09 05:51:21;;;;;;;;;;;;;;;;;;4976390;28;20415;-69
2023/07/09 05:53:47;;;;;;;;;;;;;;;;;;4976665;28;19958;-69
2023/07/09 05:56:13;;;;;;;;;;;;;;;;;;4976250;28;20349;-69
2023/07/09 05:58:39;;;;;;;;;;;;;;;;;;4976246;28;19985;-69
2023/07/09 06:01:05;;;;;;;;;;;;;;;;;;4976172;28;20416;-70
2023/07/09 06:03:31;;;;;;;;;;;;;;;;;;4976432;28;19956;-70
2023/07/09 06:05:58;;;;;;;;;;;;;;;;;;4976089;28;19963;-70
2023/07/09 06:08:24;;;;;;;;;;;;;;;;;;4976588;28;20451;-70
2023/07/09 06:10:50;;;;;;;;;;;;;;;;;;4976034;28;20438;-69
2023/07/09 06:13:16;;;;;;;;;;;;;;;;;;4976078;28;19956;-69
2023/07/09 06:15:41;;;;;;;;;;;;;;;;;;4975792;28;20015;-69
2023/07/09 06:18:08;;;;;;;;;;;;;;;;;;4975924;28;19956;-69
2023/07/09 06:20:33;;;;;;;;;;;;;;;;;;4976158;28;19956;-69
2023/07/09 06:23:00;;;;;;;;;;;;;;;;;;4975853;28;20047;-69
2023/07/09 06:25:26;;;;;;;;;;;;;;;;;;4975824;28;19963;-69
2023/07/09 06:27:52;;;;;;;;;;;;;;;;;;4976274;28;19957;-69
2023/07/09 06:30:19;;;;;;;;;;;;;;;;;;4975956;28;19955;-69
2023/07/09 06:32:45;;;;;;;;;;;;;;;;;;4975596;28;20377;-69
2023/07/09 06:35:11;;;;;;;;;;;;;;;;;;4975542;28;19980;-69
2023/07/09 06:37:37;;;;;;;;;;;;;;;;;;4975845;28;19958;-69
2023/07/09 06:40:03;;;;;;;;;;;;;;;;;;4975572;28;20408;-70
2023/07/09 06:42:28;;;;;;;;;;;;;;;;;;4975415;28;19972;-69
2023/07/09 06:44:54;;;;;;;;;;;;;;;;;;4975813;28;20011;-69
2023/07/09 06:47:20;;;;;;;;;;;;;;;;;;4975692;28;20018;-69
2023/07/09 06:49:46;;;;;;;;;;;;;;;;;;4975337;28;19955;-69
2023/07/09 06:52:12;;;;;;;;;;;;;;;;;;4975888;28;19994;-69
2023/07/09 06:54:38;;;;;;;;;;;;;;;;;;4975239;28;20029;-69
2023/07/09 06:57:04;;;;;;;;;;;;;;;;;;4975798;28;20451;-70
2023/07/09 06:59:30;;;;;;;;;;;;;;;;;;4975504;28;19955;-70
2023/07/09 07:01:56;;;;;;;;;;;;;;;;;;4975181;28;20426;-69
2023/07/09 07:04:21;;;;;;;;;;;;;;;;;;4975201;28;19956;-70
2023/07/09 07:06:47;;;;;;;;;;;;;;;;;;4975359;28;19960;-70
2023/07/09 07:09:13;;;;;;;;;;;;;;;;;;4975392;28;19956;-70
2023/07/09 07:11:39;;;;;;;;;;;;;;;;;;4975051;28;19987;-69
2023/07/09 07:14:05;;;;;;;;;;;;;;;;;;4974948;28;20079;-69
2023/07/09 07:16:31;;;;;;;;;;;;;;;;;;4975001;28;19956;-69
2023/07/09 07:18:57;;;;;;;;;;;;;;;;;;4975291;28;19955;-70
2023/07/09 07:21:23;;;;;;;;;;;;;;;;;;4974949;28;20422;-69
2023/07/09 07:23:49;;;;;;;;;;;;;;;;;;4973621;28;19964;-70
2023/07/09 07:26:15;;;;;;;;;;;;;;;;;;4974940;28;20332;-70
2023/07/09 07:28:40;;;;;;;;;;;;;;;;;;4974373;28;19965;-70
2023/07/09 07:31:07;;;;;;;;;;;;;;;;;;4975172;28;19999;-69
2023/07/09 07:33:33;;;;;;;;;;;;;;;;;;4974833;28;19959;-70
2023/07/09 07:35:59;;;;;;;;;;;;;;;;;;4975052;28;19983;-69
2023/07/09 07:38:25;;;;;;;;;;;;;;;;;;4974799;28;20418;-70
2023/07/09 07:40:51;;;;;;;;;;;;;;;;;;4975033;28;19956;-70
2023/07/09 07:43:16;;;;;;;;;;;;;;;;;;4974498;28;19979;-69
2023/07/09 07:45:42;;;;;;;;;;;;;;;;;;4975752;28;19987;-70
2023/07/09 07:48:08;;;;;;;;;;;;;;;;;;4974960;28;20051;-70
2023/07/09 07:50:34;;;;;;;;;;;;;;;;;;4974681;28;19956;-69
2023/07/09 07:53:00;;;;;;;;;;;;;;;;;;4974944;28;19955;-69
2023/07/09 07:55:26;;;;;;;;;;;;;;;;;;4974825;28;19980;-69
2023/07/09 07:57:52;;;;;;;;;;;;;;;;;;4974631;28;19958;-69
2023/07/09 08:00:18;;;;;;;;;;;;;;;;;;4974599;28;20458;-70
2023/07/09 08:02:43;;;;;;;;;;;;;;;;;;4974623;28;20041;-69
2023/07/09 08:05:09;;;;;;;;;;;;;;;;;;4975128;28;20406;-70
2023/07/09 08:07:35;;;;;;;;;;;;;;;;;;4974547;28;19963;-70
2023/07/09 08:10:01;;;;;;;;;;;;;;;;;;4974772;28;19956;-69
2023/07/09 08:12:27;;;;;;;;;;;;;;;;;;4974453;28;20045;-70
2023/07/09 08:14:53;;;;;;;;;;;;;;;;;;4974417;28;20365;-70
2023/07/09 08:17:19;;;;;;;;;;;;;;;;;;4974460;28;20007;-69
2023/07/09 08:19:45;;;;;;;;;;;;;;;;;;4974971;28;20421;-69
2023/07/09 08:22:11;;;;;;;;;;;;;;;;;;4974695;28;19955;-69
2023/07/09 08:24:37;;;;;;;;;;;;;;;;;;4974905;28;19956;-69
2023/07/09 08:27:03;;;;;;;;;;;;;;;;;;4974339;28;19966;-69
2023/07/09 08:29:29;;;;;;;;;;;;;;;;;;4974887;28;19956;-69
2023/07/09 08:31:55;;;;;;;;;;;;;;;;;;4974359;28;19964;-69
2023/07/09 08:34:21;;;;;;;;;;;;;;;;;;4974222;28;19984;-70
2023/07/09 08:36:46;;;;;;;;;;;;;;;;;;4974564;28;19960;-69
2023/07/09 08:39:15;;;;;;;;;;;;;;;;;;4974490;28;19961;-69
2023/07/09 08:41:41;;;;;;;;;;;;;;;;;;4977527;28;20349;-69
2023/07/09 08:44:06;;;;;;;;;;;;;;;;;;4977820;28;19995;-70
2023/07/09 08:46:32;;;;;;;;;;;;;;;;;;4978125;28;19959;-69
2023/07/09 08:48:58;;;;;;;;;;;;;;;;;;4977888;28;19963;-69
2023/07/09 08:51:24;;;;;;;;;;;;;;;;;;4977559;28;20382;-69
2023/07/09 08:53:50;;;;;;;;;;;;;;;;;;4977409;28;20115;-69
2023/07/09 08:56:16;;;;;;;;;;;;;;;;;;4977578;28;20035;-69
2023/07/09 08:58:42;;;;;;;;;;;;;;;;;;4977384;28;19956;-69
2023/07/09 09:01:08;;;;;;;;;;;;;;;;;;4977898;28;19956;-69
2023/07/09 09:03:35;;;;;;;;;;;;;;;;;;4977311;28;20367;-69
2023/07/09 09:06:01;;;;;;;;;;;;;;;;;;4977813;28;20318;-70
2023/07/09 09:08:27;;;;;;;;;;;;;;;;;;4977181;28;19956;-69
2023/07/09 09:10:53;;;;;;;;;;;;;;;;;;4977495;28;19972;-69
2023/07/09 09:13:19;;;;;;;;;;;;;;;;;;4977132;28;19958;-70
2023/07/09 09:15:45;;;;;;;;;;;;;;;;;;4977062;28;19983;-69
2023/07/09 09:18:11;;;;;;;;;;;;;;;;;;4977073;28;20007;-69
2023/07/09 09:20:37;;;;;;;;;;;;;;;;;;4977256;28;19961;-70
2023/07/09 09:23:03;;;;;;;;;;;;;;;;;;4976913;28;19968;-69
2023/07/09 09:25:29;;;;;;;;;;;;;;;;;;4977168;28;20004;-69
2023/07/09 09:27:55;;;;;;;;;;;;;;;;;;4976840;28;20011;-69
2023/07/09 09:30:21;;;;;;;;;;;;;;;;;;4976812;28;20050;-69
2023/07/09 09:32:47;;;;;;;;;;;;;;;;;;4977060;28;20005;-69
2023/07/09 09:35:13;;;;;;;;;;;;;;;;;;4976624;28;20019;-69
2023/07/09 09:37:39;;;;;;;;;;;;;;;;;;4976681;28;19956;-69
2023/07/09 09:40:05;;;;;;;;;;;;;;;;;;4976813;28;19956;-69
2023/07/09 09:42:31;;;;;;;;;;;;;;;;;;4976509;28;19979;-70
2023/07/09 09:44:57;;;;;;;;;;;;;;;;;;4976389;28;19988;-69
2023/07/09 09:47:23;;;;;;;;;;;;;;;;;;4977056;28;20042;-69
2023/07/09 09:49:49;;;;;;;;;;;;;;;;;;4976487;28;19967;-69
2023/07/09 09:52:14;;;;;;;;;;;;;;;;;;4976018;28;19956;-70
2023/07/09 09:54:40;;;;;;;;;;;;;;;;;;4976588;28;19981;-70
2023/07/09 09:57:06;;;;;;;;;;;;;;;;;;4976319;28;20045;-69
2023/07/09 09:59:32;;;;;;;;;;;;;;;;;;4976303;28;20091;-70
2023/07/09 10:01:58;;;;;;;;;;;;;;;;;;4976209;28;19991;-70
2023/07/09 10:04:24;;;;;;;;;;;;;;;;;;4976189;28;19956;-69
2023/07/09 10:06:50;;;;;;;;;;;;;;;;;;4976373;28;19956;-69
2023/07/09 10:09:16;;;;;;;;;;;;;;;;;;4976323;28;20011;-70
2023/07/09 10:11:42;;;;;;;;;;;;;;;;;;4976047;28;19962;-69
2023/07/09 10:14:08;;;;;;;;;;;;;;;;;;4975972;28;19956;-69
2023/07/09 10:16:36;;;;;;;;;;;;;;;;;;4976079;28;19957;-69
2023/07/09 10:19:01;;;;;;;;;;;;;;;;;;4976256;28;19959;-70
2023/07/09 10:21:31;;;;;;;;;;;;;;;;;;4975852;28;19955;-70
2023/07/09 10:23:59;;;;;;;;;;;;;;;;;;4976089;28;19963;-70
2023/07/09 10:26:25;;;;;;;;;;;;;;;;;;4975790;28;19960;-70
2023/07/09 10:28:51;;;;;;;;;;;;;;;;;;4975718;28;19962;-69
2023/07/09 10:31:17;;;;;;;;;;;;;;;;;;4975699;28;19956;-70
2023/07/09 10:33:43;;;;;;;;;;;;;;;;;;4975923;28;19962;-70
2023/07/09 10:36:09;;;;;;;;;;;;;;;;;;4975815;28;20019;-70
2023/07/09 10:38:35;;;;;;;;;;;;;;;;;;4974301;28;19961;-70
2023/07/09 10:41:03;;;;;;;;;;;;;;;;;;4976011;28;19962;-70
2023/07/09 10:43:29;;;;;;;;;;;;;;;;;;4975294;28;20008;-70
2023/07/09 10:45:55;;;;;;;;;;;;;;;;;;4976283;28;19960;-69
2023/07/09 10:48:21;;;;;;;;;;;;;;;;;;4975389;28;20305;-70
2023/07/09 10:50:47;;;;;;;;;;;;;;;;;;4975650;28;20411;-70
2023/07/09 10:53:13;;;;;;;;;;;;;;;;;;4975619;28;19983;-70
2023/07/09 10:55:39;;;;;;;;;;;;;;;;;;4975189;28;19979;-70
2023/07/09 10:58:04;;;;;;;;;;;;;;;;;;4975273;28;19956;-70
2023/07/09 11:00:30;;;;;;;;;;;;;;;;;;4975737;28;20306;-69
2023/07/09 11:02:56;;;;;;;;;;;;;;;;;;4974773;28;19961;-70
2023/07/09 11:05:22;;;;;;;;;;;;;;;;;;4975094;28;20329;-70
2023/07/09 11:07:48;;;;;;;;;;;;;;;;;;4975116;28;19999;-69
2023/07/09 11:10:14;;;;;;;;;;;;;;;;;;4975682;28;20326;-70
2023/07/09 11:12:40;;;;;;;;;;;;;;;;;;4975315;28;19964;-70
2023/07/09 11:15:08;;;;;;;;;;;;;;;;;;4974961;28;19991;-70
2023/07/09 11:17:34;;;;;;;;;;;;;;;;;;4975277;28;20480;-69
2023/07/09 11:20:00;;;;;;;;;;;;;;;;;;4974985;28;20003;-70
2023/07/09 11:22:26;;;;;;;;;;;;;;;;;;4975196;28;19956;-70
2023/07/09 11:24:52;;;;;;;;;;;;;;;;;;4974900;28;19963;-70
2023/07/09 11:27:18;;;;;;;;;;;;;;;;;;4982657;28;19964;-70
2023/07/09 11:29:44;;;;;;;;;;;;;;;;;;4994526;28;19956;-69
2023/07/09 11:32:10;;;;;;;;;;;;;;;;;;4994192;28;19995;-69
2023/07/09 11:34:36;;;;;;;;;;;;;;;;;;4992863;28;20364;-70
2023/07/09 11:37:02;;;;;;;;;;;;;;;;;;4994222;28;19956;-70
2023/07/09 11:39:29;;;;;;;;;;;;;;;;;;4994413;28;20042;-70
2023/07/09 11:41:55;;;;;;;;;;;;;;;;;;4994105;28;20499;-70
2023/07/09 11:44:21;;;;;;;;;;;;;;;;;;4993956;28;20077;-70
2023/07/09 11:46:46;;;;;;;;;;;;;;;;;;4994846;28;20037;-69
2023/07/09 11:49:12;;;;;;;;;;;;;;;;;;4994099;28;19962;-70
2023/07/09 11:51:38;;;;;;;;;;;;;;;;;;4994351;28;19955;-70
2023/07/09 11:54:04;;;;;;;;;;;;;;;;;;4994019;28;20042;-70
2023/07/09 11:56:31;;;;;;;;;;;;;;;;;;4993926;28;19984;-70
2023/07/09 11:58:57;;;;;;;;;;;;;;;;;;4994016;28;20449;-70
2023/07/09 12:01:23;;;;;;;;;;;;;;;;;;4993962;28;20064;-70
2023/07/09 12:03:49;;;;;;;;;;;;;;;;;;4994178;28;19982;-69
2023/07/09 12:06:15;;;;;;;;;;;;;;;;;;4993937;28;19991;-69
2023/07/09 12:08:40;;;;;;;;;;;;;;;;;;4993909;28;20334;-70
2023/07/09 12:11:06;;;;;;;;;;;;;;;;;;4994157;28;20035;-70
2023/07/09 12:13:32;;;;;;;;;;;;;;;;;;4994008;28;20327;-69
2023/07/09 12:15:58;;;;;;;;;;;;;;;;;;4998128;28;20511;-69
2023/07/09 12:18:24;;;;;;;;;;;;;;;;;;4997861;28;19964;-70
2023/07/09 12:20:50;;;;;;;;;;;;;;;;;;4997536;28;19956;-70
2023/07/09 12:23:16;;;;;;;;;;;;;;;;;;4997522;28;19957;-70
2023/07/09 12:25:42;;;;;;;;;;;;;;;;;;4997482;28;19955;-70
2023/07/09 12:28:08;;;;;;;;;;;;;;;;;;4997698;28;19957;-70
2023/07/09 12:30:33;;;;;;;;;;;;;;;;;;4997338;28;19957;-70
2023/07/09 12:32:59;;;;;;;;;;;;;;;;;;4997281;28;19956;-70
2023/07/09 12:35:25;;;;;;;;;;;;;;;;;;4997180;28;20318;-70
2023/07/09 12:37:52;;;;;;;;;;;;;;;;;;4997214;28;19955;-70
2023/07/09 12:40:18;;;;;;;;;;;;;;;;;;4997133;28;19960;-69
2023/07/09 12:42:44;;;;;;;;;;;;;;;;;;4997039;28;20026;-70
2023/07/09 12:45:10;;;;;;;;;;;;;;;;;;4996769;28;19993;-70
2023/07/09 12:47:36;;;;;;;;;;;;;;;;;;4997852;28;20008;-69
2023/07/09 12:50:02;;;;;;;;;;;;;;;;;;4997329;28;19978;-70
2023/07/09 12:52:27;;;;;;;;;;;;;;;;;;4996951;28;19963;-70
2023/07/09 12:54:53;;;;;;;;;;;;;;;;;;4997436;28;20319;-70
2023/07/09 12:57:20;;;;;;;;;;;;;;;;;;4997149;28;20005;-70
2023/07/09 12:59:46;;;;;;;;;;;;;;;;;;4997160;28;20026;-70
2023/07/09 13:02:12;;;;;;;;;;;;;;;;;;4997315;28;20425;-69
2023/07/09 13:04:38;;;;;;;;;;;;;;;;;;4996745;28;20430;-70
2023/07/09 13:07:04;;;;;;;;;;;;;;;;;;4997019;28;19956;-70
2023/07/09 13:09:30;;;;;;;;;;;;;;;;;;4996699;28;19955;-70
2023/07/09 13:11:56;;;;;;;;;;;;;;;;;;4996650;28;20414;-69
2023/07/09 13:14:21;;;;;;;;;;;;;;;;;;4996506;28;19957;-70
2023/07/09 13:16:48;;;;;;;;;;;;;;;;;;4996530;28;20055;-70
2023/07/09 13:19:14;;;;;;;;;;;;;;;;;;4996781;28;20007;-69
2023/07/09 13:21:39;;;;;;;;;;;;;;;;;;4996420;28;20054;-70
2023/07/09 13:24:05;;;;;;;;;;;;;;;;;;4996441;28;19956;-70
2023/07/09 13:26:31;;;;;;;;;;;;;;;;;;4995755;28;19956;-69
2023/07/09 13:28:57;;;;;;;;;;;;;;;;;;4996535;28;19955;-70
2023/07/09 13:31:23;;;;;;;;;;;;;;;;;;4996146;28;20067;-70
2023/07/09 13:33:49;;;;;;;;;;;;;;;;;;4996191;28;19967;-70
2023/07/09 13:36:15;;;;;;;;;;;;;;;;;;4996105;28;19976;-70
2023/07/09 13:38:41;;;;;;;;;;;;;;;;;;4996146;28;19956;-70
2023/07/09 13:41:07;;;;;;;;;;;;;;;;;;4996139;28;20052;-70
2023/07/09 13:43:33;;;;;;;;;;;;;;;;;;4996408;28;20434;-70
2023/07/09 13:45:58;;;;;;;;;;;;;;;;;;4996306;28;19962;-70
2023/07/09 13:48:24;;;;;;;;;;;;;;;;;;4996599;28;20373;-70
2023/07/09 13:50:50;;;;;;;;;;;;;;;;;;4996169;28;19955;-70
2023/07/09 13:53:16;;;;;;;;;;;;;;;;;;4995835;28;19956;-70
2023/07/09 13:55:42;;;;;;;;;;;;;;;;;;4996292;28;20335;-70
2023/07/09 13:58:08;;;;;;;;;;;;;;;;;;4995750;28;20406;-70
2023/07/09 14:00:34;;;;;;;;;;;;;;;;;;4996227;28;19971;-70
2023/07/09 14:03:00;;;;;;;;;;;;;;;;;;4995675;28;19960;-70
2023/07/09 14:05:27;;;;;;;;;;;;;;;;;;4995627;28;20010;-70
2023/07/09 14:07:53;;;;;;;;;;;;;;;;;;4995841;28;19958;-70
2023/07/09 14:10:20;;;;;;;;;;;;;;;;;;4994071;28;19967;-70
2023/07/09 14:12:46;;;;;;;;;;;;;;;;;;4995543;28;20010;-70
2023/07/09 14:15:12;;;;;;;;;;;;;;;;;;4995940;28;20437;-70
2023/07/09 14:17:38;;;;;;;;;;;;;;;;;;4995354;28;19956;-70
2023/07/09 14:20:04;;;;;;;;;;;;;;;;;;4995595;28;20055;-70
2023/07/09 14:22:30;;;;;;;;;;;;;;;;;;4995321;28;20398;-70
2023/07/09 14:24:56;;;;;;;;;;;;;;;;;;4995231;28;19981;-70
2023/07/09 14:27:22;;;;;;;;;;;;;;;;;;4995763;28;20393;-70
2023/07/09 14:29:47;;;;;;;;;;;;;;;;;;4995155;28;19955;-70
2023/07/09 14:32:13;;;;;;;;;;;;;;;;;;4995354;28;19961;-70
2023/07/09 14:34:40;;;;;;;;;;;;;;;;;;4994968;28;19976;-70
2023/07/09 14:37:05;;;;;;;;;;;;;;;;;;4995002;28;20009;-70
2023/07/09 14:39:31;;;;;;;;;;;;;;;;;;4995810;28;20393;-70
2023/07/09 14:41:59;;;;;;;;;;;;;;;;;;4995156;28;19972;-70
2023/07/09 14:44:25;;;;;;;;;;;;;;;;;;4994691;28;19988;-70
2023/07/09 14:46:51;;;;;;;;;;;;;;;;;;4995974;28;20468;-70
2023/07/09 14:49:17;;;;;;;;;;;;;;;;;;4994856;28;19957;-70
2023/07/09 14:51:43;;;;;;;;;;;;;;;;;;4995075;28;20077;-70
2023/07/09 14:54:09;;;;;;;;;;;;;;;;;;4995024;28;19956;-70
2023/07/09 14:56:35;;;;;;;;;;;;;;;;;;4995209;28;19983;-70
2023/07/09 14:59:01;;;;;;;;;;;;;;;;;;4994915;28;19956;-70
2023/07/09 15:01:27;;;;;;;;;;;;;;;;;;4995181;28;20002;-70
2023/07/09 15:03:52;;;;;;;;;;;;;;;;;;4994566;28;20386;-70
2023/07/09 15:06:18;;;;;;;;;;;;;;;;;;4994561;28;19955;-70
2023/07/09 15:08:44;;;;;;;;;;;;;;;;;;4995095;28;20291;-70
2023/07/09 15:11:10;;;;;;;;;;;;;;;;;;4994805;28;20018;-70
2023/07/09 15:13:36;;;;;;;;;;;;;;;;;;4994759;28;20373;-70
2023/07/09 15:16:02;;;;;;;;;;;;;;;;;;4994301;28;20069;-70
2023/07/09 15:18:30;;;;;;;;;;;;;;;;;;4993970;28;20294;-70
2023/07/09 15:20:56;;;;;;;;;;;;;;;;;;4994368;28;20007;-70
2023/07/09 15:23:22;;;;;;;;;;;;;;;;;;4994659;28;20042;-70
2023/07/09 15:25:48;;;;;;;;;;;;;;;;;;4994356;28;19977;-70
2023/07/09 15:28:14;;;;;;;;;;;;;;;;;;4994855;28;19957;-70
2023/07/09 15:30:40;;;;;;;;;;;;;;;;;;4994538;28;19957;-70
2023/07/09 15:33:06;;;;;;;;;;;;;;;;;;4994763;28;19962;-70
2023/07/09 15:35:32;;;;;;;;;;;;;;;;;;4994114;28;19977;-70
2023/07/09 15:37:58;;;;;;;;;;;;;;;;;;4994465;28;20002;-69
2023/07/09 15:40:24;;;;;;;;;;;;;;;;;;4992716;28;19967;-70
2023/07/09 15:42:50;;;;;;;;;;;;;;;;;;4994336;28;19973;-70
2023/07/09 15:45:16;;;;;;;;;;;;;;;;;;4993840;28;20075;-70
2023/07/09 15:47:42;;;;;;;;;;;;;;;;;;4994615;28;20041;-70
2023/07/09 15:50:08;;;;;;;;;;;;;;;;;;4997115;28;19959;-70
2023/07/09 15:52:34;;;;;;;;;;;;;;;;;;4998109;28;19962;-70
2023/07/09 15:55:00;;;;;;;;;;;;;;;;;;4997966;28;20012;-70
2023/07/09 15:57:26;;;;;;;;;;;;;;;;;;4998051;28;19955;-70
2023/07/09 15:59:51;;;;;;;;;;;;;;;;;;4998543;28;20012;-69
2023/07/09 16:02:18;;;;;;;;;;;;;;;;;;4997944;28;19964;-69
2023/07/09 16:04:44;;;;;;;;;;;;;;;;;;4997910;28;19965;-70
2023/07/09 16:07:10;;;;;;;;;;;;;;;;;;4998409;28;20370;-70
2023/07/09 16:09:37;;;;;;;;;;;;;;;;;;4996343;28;19958;-70
2023/07/09 16:12:03;;;;;;;;;;;;;;;;;;4997995;28;20054;-70
2023/07/09 16:14:29;;;;;;;;;;;;;;;;;;4997607;28;20010;-70
2023/07/09 16:16:55;;;;;;;;;;;;;;;;;;4998202;28;19957;-70
2023/07/09 16:19:20;;;;;;;;;;;;;;;;;;4997575;28;19957;-70
2023/07/09 16:21:47;;;;;;;;;;;;;;;;;;4997845;28;19955;-70
2023/07/09 16:24:13;;;;;;;;;;;;;;;;;;4997511;28;20006;-70
2023/07/09 16:26:38;;;;;;;;;;;;;;;;;;4997694;28;19957;-70
2023/07/09 16:29:04;;;;;;;;;;;;;;;;;;4997693;28;20003;-70
2023/07/09 16:31:30;;;;;;;;;;;;;;;;;;4997402;28;19962;-70
2023/07/09 16:33:56;;;;;;;;;;;;;;;;;;4997337;28;19962;-70
2023/07/09 16:36:22;;;;;;;;;;;;;;;;;;4997242;28;19977;-69
2023/07/09 16:38:49;;;;;;;;;;;;;;;;;;4997550;28;20373;-70
2023/07/09 16:41:17;;;;;;;;;;;;;;;;;;4997402;28;19982;-70